Terminal Aerodrome Forecast
Issued by NWS

Home | Current Version | Previous Version | Text Only | Print | Product List | Glossary On
Versions: 1 2 3 4 5 6 7 8 9 10 11 12 13 14 15 16
000
FTUS46 KEKA 242300 RRA
TAFCEC
TAF
KCEC 242341Z 2500/2524 32020G34KT P6SM SKC
     FM250300 34018G28KT P6SM SKC
     FM250800 35006KT P6SM SKC
     FM251100 34005KT 6SM BR SCT005
     FM251700 31010KT P6SM SKC
     FM252000 32014G22KT P6SM SKC=

USA.gov is the U.S. government's official web portal to all federal, state and local government web resources and services.